Bornholm — C4KF2 — position and weather

sailwx.info

Track history (hours):
 
Tides and Currents Weather Stations Pressure Air Temp Water Temp Dewpoint Dewpoint Depression Visibility Wind Speed Wind Dir Waves Ship Positions

Bornholm

Last reported at 2014-Sep-22 07:03 UTC. Time now 2014-Sep-22 08:09 UTC.
Position N 44°19' E 008°30'.

Length 118 m; draft 6.5 m.

Type: Cargo ship. MMSI: 212521000.

Date/timePositionNaut miles runAvg speedWind from/ knotsBaromVisibWave heightAir tempDewpointWater temp
2014-Sep-22 07:03N 44°19' E 008°30'0 0.0
2014-Sep-22 06:27N 44°19' E 008°30'0 0.0
2014-Sep-22 04:12N 44°19' E 008°30'0 0.0
2014-Sep-22 03:30N 44°19' E 008°30'1 0.7
2014-Sep-22 02:26N 44°18' E 008°30'0 0.0
2014-Sep-22 01:32N 44°18' E 008°30'0 0.0
2014-Sep-22 00:32N 44°18' E 008°30'0 0.0
2014-Sep-21 23:29N 44°18' E 008°30'0 0.0
2014-Sep-21 22:32N 44°18' E 008°30'0 0.0
2014-Sep-21 20:29N 44°18' E 008°30'0 0.0
2014-Sep-21 18:29N 44°18' E 008°30'0 0.0
2014-Sep-21 17:32N 44°18' E 008°30'0 0.0
2014-Sep-21 15:29N 44°18' E 008°30'0 0.0
2014-Sep-21 14:29N 44°18' E 008°30'0 0.0
2014-Sep-21 13:32N 44°18' E 008°30'0 0.0
2014-Sep-21 12:26N 44°18' E 008°30'0 0.0
2014-Sep-21 11:32N 44°18' E 008°30'0 0.0
2014-Sep-21 10:32N 44°18' E 008°30'0 0.1
2014-Sep-21 09:26N 44°18' E 008°31'6 6.9
2014-Sep-21 08:32N 44°12' E 008°30'1110.9
2014-Sep-21 07:33N 44°03' E 008°23'2510.4
2014-Sep-21 05:10N 43°42' E 008°03'2710.5
2014-Sep-21 02:33N 43°24' E 007°35'1110.6
2014-Sep-21 01:32N 43°17' E 007°24'1010.5
2014-Sep-21 00:33N 43°10' E 007°13'1010.5
2014-Sep-20 23:33N 43°03' E 007°03'1010.5
2014-Sep-20 22:33N 42°56' E 006°52'1010.4
2014-Sep-20 21:33N 42°49' E 006°42'1010.5
2014-Sep-20 20:33N 42°42' E 006°31'1110.8
2014-Sep-20 19:32N 42°35' E 006°20'1110.9
2014-Sep-20 18:33N 42°27' E 006°10'1110.5
2014-Sep-20 17:33N 42°20' E 005°59'1110.7
2014-Sep-20 16:33N 42°13' E 005°48'1111.1
2014-Sep-20 15:33N 42°06' E 005°37'1211.5
2014-Sep-20 14:30N 41°57' E 005°25'1211.6
2014-Sep-20 13:27N 41°50' E 005°13'1210.9
2014-Sep-20 12:22N 41°42' E 005°01'911.1
2014-Sep-20 11:33N 41°36' E 004°52'1310.9
2014-Sep-20 10:22N 41°27' E 004°39'1310.7
2014-Sep-20 09:07N 41°18' E 004°26'911.0
2014-Sep-20 08:19N 41°12' E 004°17'911.6
2014-Sep-20 07:33N 41°06' E 004°09'3310.4
2014-Sep-20 04:25N 40°44' E 003°37'910.5
2014-Sep-20 03:33N 40°38' E 003°28'1010.5
2014-Sep-20 02:33N 40°31' E 003°18'1110.7
2014-Sep-20 01:33N 40°24' E 003°07'1110.7
2014-Sep-20 00:33N 40°17' E 002°57'1110.8
2014-Sep-19 23:33N 40°09' E 002°46'1111.3
2014-Sep-19 22:33N 40°02' E 002°36'1111.4
2014-Sep-19 21:33N 39°54' E 002°24'1111.2
2014-Sep-19 20:33N 39°47' E 002°13'1211.5
2014-Sep-19 19:33N 39°39' E 002°02'1712.4
2014-Sep-19 18:12N 39°28' E 001°46'6 9.3
2014-Sep-19 17:33N 39°24' E 001°41'1111.1
2014-Sep-19 16:33N 39°16' E 001°30'1110.9
2014-Sep-19 15:33N 39°09' E 001°20'1110.9
2014-Sep-19 14:30N 39°01' E 001°09'1010.8
2014-Sep-19 13:33N 38°54' E 000°60'1110.8
2014-Sep-19 12:33N 38°46' E 000°51'2410.4
2014-Sep-19 10:18N 38°28' E 000°31'2311.0
2014-Sep-19 08:10N 38°11' E 000°11'910.0
2014-Sep-19 07:15N 38°04' E 000°03'2910.4
2014-Sep-19 04:31N 37°42' W 000°21'1010.5
2014-Sep-19 03:33N 37°35' W 000°29'1110.9
2014-Sep-19 02:33N 37°27' W 000°39'1110.5
2014-Sep-19 01:33N 37°20' W 000°49'1110.7
2014-Sep-19 00:33N 37°13' W 000°59'217 8.0
2014-Sep-17 21:32N 36°01' W 005°14'24310.9
2014-Sep-16 23:12N 37°44' W 009°49'  
2014-Sep-13 16:32N 50°20' W 001°06'2115.2
2014-Sep-13 15:08N 50°26' W 000°34'2512.9
2014-Sep-13 13:13N 50°33' E 000°03'811.3
2014-Sep-13 12:28N 50°35' E 000°16'1010.6
2014-Sep-13 11:33N 50°38' E 000°30'1111.3
2014-Sep-13 10:33N 50°44' E 000°45'1313.3
2014-Sep-13 09:33N 50°52' E 001°03'1514.8
2014-Sep-13 08:34N 51°01' E 001°21'1414.3
2014-Sep-13 07:34N 51°10' E 001°38'1212.4
2014-Sep-13 06:34N 51°20' E 001°51'1111.1
2014-Sep-13 05:34N 51°29' E 002°01'1110.6
2014-Sep-13 04:33N 51°38' E 002°11'1110.3
2014-Sep-13 03:31N 51°46' E 002°23'2311.8
2014-Sep-13 01:33N 52°03' E 002°47'3413.9
2014-Sep-12 23:04N 52°30' E 003°23'814.1
2014-Sep-12 22:30N 52°37' E 003°30'1813.4
2014-Sep-12 21:11N 52°51' E 003°49'812.4
2014-Sep-12 20:33N 52°56' E 003°57'1511.8
2014-Sep-12 19:16N 53°07' E 004°16'810.8
2014-Sep-12 18:33N 53°12' E 004°24'5012.4
2014-Sep-12 14:31N 53°59' E 004°54'1612.9
2014-Sep-12 13:16N 54°14' E 005°05'  
Track history (hours):
 
Tides and Currents Weather Stations Pressure Air Temp Water Temp Dewpoint Dewpoint Depression Visibility Wind Speed Wind Dir Waves Ship Positions

Bornholm

Last reported at 2014-Sep-22 07:03 UTC. Time now 2014-Sep-22 08:09 UTC.
Position N 44°19' E 008°30'.

Length 118 m; draft 6.5 m.

Type: Cargo ship. MMSI: 212521000.

Date/timePositionNaut miles runAvg speedWind from/ knotsBaromVisibWave heightAir tempDewpointWater temp
2014-Sep-22 07:03N 44°19' E 008°30'0 0.0
2014-Sep-22 06:27N 44°19' E 008°30'0 0.0
2014-Sep-22 04:12N 44°19' E 008°30'0 0.0
2014-Sep-22 03:30N 44°19' E 008°30'1 0.7
2014-Sep-22 02:26N 44°18' E 008°30'0 0.0
2014-Sep-22 01:32N 44°18' E 008°30'0 0.0
2014-Sep-22 00:32N 44°18' E 008°30'0 0.0
2014-Sep-21 23:29N 44°18' E 008°30'0 0.0
2014-Sep-21 22:32N 44°18' E 008°30'0 0.0
2014-Sep-21 20:29N 44°18' E 008°30'0 0.0
2014-Sep-21 18:29N 44°18' E 008°30'0 0.0
2014-Sep-21 17:32N 44°18' E 008°30'0 0.0
2014-Sep-21 15:29N 44°18' E 008°30'0 0.0
2014-Sep-21 14:29N 44°18' E 008°30'0 0.0
2014-Sep-21 13:32N 44°18' E 008°30'0 0.0
2014-Sep-21 12:26N 44°18' E 008°30'0 0.0
2014-Sep-21 11:32N 44°18' E 008°30'0 0.0
2014-Sep-21 10:32N 44°18' E 008°30'0 0.1
2014-Sep-21 09:26N 44°18' E 008°31'6 6.9
2014-Sep-21 08:32N 44°12' E 008°30'1110.9
2014-Sep-21 07:33N 44°03' E 008°23'2510.4
2014-Sep-21 05:10N 43°42' E 008°03'2710.5
2014-Sep-21 02:33N 43°24' E 007°35'1110.6
2014-Sep-21 01:32N 43°17' E 007°24'1010.5
2014-Sep-21 00:33N 43°10' E 007°13'1010.5
2014-Sep-20 23:33N 43°03' E 007°03'1010.5
2014-Sep-20 22:33N 42°56' E 006°52'1010.4
2014-Sep-20 21:33N 42°49' E 006°42'1010.5
2014-Sep-20 20:33N 42°42' E 006°31'1110.8
2014-Sep-20 19:32N 42°35' E 006°20'1110.9
2014-Sep-20 18:33N 42°27' E 006°10'1110.5
2014-Sep-20 17:33N 42°20' E 005°59'1110.7
2014-Sep-20 16:33N 42°13' E 005°48'1111.1
2014-Sep-20 15:33N 42°06' E 005°37'1211.5
2014-Sep-20 14:30N 41°57' E 005°25'1211.6
2014-Sep-20 13:27N 41°50' E 005°13'1210.9
2014-Sep-20 12:22N 41°42' E 005°01'911.1
2014-Sep-20 11:33N 41°36' E 004°52'1310.9
2014-Sep-20 10:22N 41°27' E 004°39'1310.7
2014-Sep-20 09:07N 41°18' E 004°26'911.0
2014-Sep-20 08:19N 41°12' E 004°17'911.6
2014-Sep-20 07:33N 41°06' E 004°09'3310.4
2014-Sep-20 04:25N 40°44' E 003°37'910.5
2014-Sep-20 03:33N 40°38' E 003°28'1010.5
2014-Sep-20 02:33N 40°31' E 003°18'1110.7
2014-Sep-20 01:33N 40°24' E 003°07'1110.7
2014-Sep-20 00:33N 40°17' E 002°57'1110.8
2014-Sep-19 23:33N 40°09' E 002°46'1111.3
2014-Sep-19 22:33N 40°02' E 002°36'1111.4
2014-Sep-19 21:33N 39°54' E 002°24'1111.2
2014-Sep-19 20:33N 39°47' E 002°13'1211.5
2014-Sep-19 19:33N 39°39' E 002°02'1712.4
2014-Sep-19 18:12N 39°28' E 001°46'6 9.3
2014-Sep-19 17:33N 39°24' E 001°41'1111.1
2014-Sep-19 16:33N 39°16' E 001°30'1110.9
2014-Sep-19 15:33N 39°09' E 001°20'1110.9
2014-Sep-19 14:30N 39°01' E 001°09'1010.8
2014-Sep-19 13:33N 38°54' E 000°60'1110.8
2014-Sep-19 12:33N 38°46' E 000°51'2410.4
2014-Sep-19 10:18N 38°28' E 000°31'2311.0
2014-Sep-19 08:10N 38°11' E 000°11'910.0
2014-Sep-19 07:15N 38°04' E 000°03'2910.4
2014-Sep-19 04:31N 37°42' W 000°21'1010.5
2014-Sep-19 03:33N 37°35' W 000°29'1110.9
2014-Sep-19 02:33N 37°27' W 000°39'1110.5
2014-Sep-19 01:33N 37°20' W 000°49'1110.7
2014-Sep-19 00:33N 37°13' W 000°59'217 8.0
2014-Sep-17 21:32N 36°01' W 005°14'24310.9
2014-Sep-16 23:12N 37°44' W 009°49'  
2014-Sep-13 16:32N 50°20' W 001°06'2115.2
2014-Sep-13 15:08N 50°26' W 000°34'2512.9
2014-Sep-13 13:13N 50°33' E 000°03'811.3
2014-Sep-13 12:28N 50°35' E 000°16'1010.6
2014-Sep-13 11:33N 50°38' E 000°30'1111.3
2014-Sep-13 10:33N 50°44' E 000°45'1313.3
2014-Sep-13 09:33N 50°52' E 001°03'1514.8
2014-Sep-13 08:34N 51°01' E 001°21'1414.3
2014-Sep-13 07:34N 51°10' E 001°38'1212.4
2014-Sep-13 06:34N 51°20' E 001°51'1111.1
2014-Sep-13 05:34N 51°29' E 002°01'1110.6
2014-Sep-13 04:33N 51°38' E 002°11'1110.3
2014-Sep-13 03:31N 51°46' E 002°23'2311.8
2014-Sep-13 01:33N 52°03' E 002°47'3413.9
2014-Sep-12 23:04N 52°30' E 003°23'814.1
2014-Sep-12 22:30N 52°37' E 003°30'1813.4
2014-Sep-12 21:11N 52°51' E 003°49'812.4
2014-Sep-12 20:33N 52°56' E 003°57'1511.8
2014-Sep-12 19:16N 53°07' E 004°16'810.8
2014-Sep-12 18:33N 53°12' E 004°24'5012.4
2014-Sep-12 14:31N 53°59' E 004°54'1612.9
2014-Sep-12 13:16N 54°14' E 005°05'  

Dump ship's entire track history